Time;durP1;ratioP1;P1;durP2;ratioP2;P2;SDS_P1;SDS_P2;PMS_P1;PMS_P2;Temp;Humidity;BMP_temperature;BMP_pressure;BME280_temperature;BME280_humidity;BME280_pressure;Samples;Min_cycle;Max_cycle;Signal;HPM_P1;HPM_P2
2022/05/24 00:00:37;;;;;;;2.10;1.60;;;19.60;99.90;;;20.24;63.65;99462.72;5025323;28;20738;-67
2022/05/24 00:03:05;;;;;;;1.63;1.53;;;19.60;99.90;;;20.21;63.68;99466.56;5050732;28;20983;-67
2022/05/24 00:05:35;;;;;;;4.20;1.93;;;19.50;99.90;;;20.19;63.73;99468.59;5032140;28;21090;-67
2022/05/24 00:08:04;;;;;;;1.90;1.80;;;19.50;99.90;;;20.21;63.97;99468.44;5030822;28;20671;-67
2022/05/24 00:10:33;;;;;;;2.00;1.90;;;19.60;99.90;;;20.22;64.03;99464.75;5031775;28;20675;-67
2022/05/24 00:13:00;;;;;;;2.13;2.03;;;19.60;99.90;;;20.23;64.00;99453.16;5042663;28;20631;-67
2022/05/24 00:15:30;;;;;;;2.20;2.10;;;19.60;99.90;;;20.18;64.36;99444.97;5054523;28;21175;-68
2022/05/24 00:18:03;;;;;;;2.20;2.10;;;19.50;99.90;;;20.17;64.43;99448.63;5047839;28;20628;-67
2022/05/24 00:20:38;;;;;;;2.07;1.97;;;19.50;99.90;;;20.16;64.44;99447.81;5035352;28;20614;-67
2022/05/24 00:23:06;;;;;;;2.40;2.20;;;19.50;99.90;;;20.15;64.01;99451.47;5033722;28;20746;-67
2022/05/24 00:25:39;;;;;;;2.63;2.53;;;19.50;99.90;;;20.09;64.57;99458.38;5040452;28;20637;-67
2022/05/24 00:28:07;;;;;;;2.93;2.60;;;19.40;99.90;;;20.11;64.46;99461.66;5016977;28;20633;-68
2022/05/24 00:30:36;;;;;;;2.90;2.70;;;19.50;99.90;;;20.07;64.84;99449.00;5028203;28;20664;-67
2022/05/24 00:33:03;;;;;;;2.00;1.90;;;19.40;99.90;;;20.09;64.38;99445.16;5032975;28;20613;-67
2022/05/24 00:35:30;;;;;;;2.20;2.10;;;19.50;99.90;;;19.99;64.61;99452.66;5034127;28;20628;-67
2022/05/24 00:37:57;;;;;;;1.80;1.73;;;19.40;99.90;;;19.99;64.17;99465.91;5046123;28;20634;-67
2022/05/24 00:40:42;;;;;;;2.33;2.23;;;19.40;99.90;;;19.99;64.25;99486.25;5044054;28;21001;-67
2022/05/24 00:43:27;;;;;;;6.23;2.40;;;19.30;99.90;;;19.98;63.88;99493.38;5032320;28;21286;-67
2022/05/24 00:46:05;;;;;;;3.33;2.10;;;19.40;99.90;;;19.87;64.44;99488.63;5033095;28;20636;-66
2022/05/24 00:48:45;;;;;;;2.30;2.20;;;19.20;99.90;;;19.87;64.82;99483.34;5033188;28;20723;-66
2022/05/24 00:51:20;;;;;;;2.37;2.27;;;19.20;99.90;;;19.86;65.06;99475.59;5031952;28;20662;-67
2022/05/24 00:53:53;;;;;;;2.67;2.47;;;19.20;99.90;;;19.88;65.27;99470.94;5006676;28;20640;-67
2022/05/24 00:56:55;;;;;;;2.00;1.90;;;19.20;99.90;;;19.86;65.30;99479.06;5017860;28;20635;-67
2022/05/24 01:00:14;;;;;;;2.00;1.90;;;19.20;99.90;;;19.92;65.05;99469.53;5011117;28;20617;-67
2022/05/24 01:02:43;;;;;;;2.43;2.33;;;19.20;99.90;;;19.82;65.28;99471.72;5013860;28;20642;-67
2022/05/24 01:05:25;;;;;;;2.10;2.00;;;19.20;99.90;;;19.79;65.47;99467.63;5053186;28;20714;-67
2022/05/24 01:07:52;;;;;;;2.83;2.63;;;19.20;99.90;;;19.80;65.66;99456.06;5046880;28;20674;-64
2022/05/24 01:10:34;;;;;;;2.77;2.57;;;19.20;99.90;;;19.76;65.49;99444.19;5053280;28;20709;-67
2022/05/24 01:13:16;;;;;;;3.30;2.97;;;19.10;99.90;;;19.66;65.68;99451.69;5034417;28;20636;-67
2022/05/24 01:15:44;;;;;;;2.60;2.40;;;19.10;99.90;;;19.67;65.79;99452.53;5033383;28;20626;-67
2022/05/24 01:18:12;;;;;;;2.90;2.70;;;19.00;99.90;;;19.58;66.22;99462.44;5030962;28;20639;-67
2022/05/24 01:20:44;;;;;;;3.90;2.40;;;19.00;99.90;;;19.65;65.48;99463.31;5032231;28;20996;-67
2022/05/24 01:23:54;;;;;;;2.80;2.60;;;19.00;99.90;;;19.66;65.80;99462.28;5030564;28;20739;-67
2022/05/24 01:26:54;;;;;;;2.07;1.97;;;19.00;99.90;;;19.69;65.46;99466.38;5029683;28;20636;-67
2022/05/24 01:29:25;;;;;;;2.50;2.33;;;19.10;99.90;;;19.71;65.19;99457.22;5028319;28;20662;-67
2022/05/24 01:37:30;;;;;;;2.97;2.77;;;19.20;99.90;;;19.84;64.46;99443.22;5030746;28;20622;-67
2022/05/24 01:39:59;;;;;;;2.23;2.13;;;19.20;99.90;;;19.68;65.27;99454.97;5013067;28;20631;-66
2022/05/24 01:42:27;;;;;;;2.57;2.47;;;19.10;99.90;;;19.69;65.44;99448.66;5020327;28;20644;-66
2022/05/24 01:45:14;;;;;;;2.57;2.43;;;19.00;99.90;;;19.69;65.53;99446.03;5034026;28;20790;-67
2022/05/24 01:47:43;;;;;;;8.33;2.30;;;19.00;99.90;;;19.63;65.66;99446.81;5017062;28;21149;-66
2022/05/24 01:50:15;;;;;;;2.60;2.40;;;19.00;99.90;;;19.54;66.12;99450.63;5009842;28;20661;-67
2022/05/24 01:52:52;;;;;;;2.70;2.50;;;18.90;99.90;;;19.59;66.38;99456.13;5030792;28;21276;-67
2022/05/24 01:55:27;;;;;;;2.90;2.70;;;19.00;99.90;;;19.61;66.68;99455.97;5030603;28;21056;-67
2022/05/24 01:57:58;;;;;;;2.10;1.93;;;19.00;99.90;;;19.52;67.82;99455.31;5017658;28;20752;-66
2022/05/24 02:00:25;;;;;;;4.50;2.53;;;18.90;99.90;;;19.43;68.50;99440.59;5024187;28;20632;-67
2022/05/24 02:02:52;;;;;;;4.17;3.87;;;18.80;99.90;;;19.33;69.34;99450.69;5036596;28;24498;-66
2022/05/24 02:05:58;;;;;;;2.97;2.77;;;18.80;99.90;;;19.24;70.20;99438.63;5038513;28;20632;-67
2022/05/24 02:08:26;;;;;;;2.57;2.37;;;18.70;99.90;;;19.25;70.46;99442.91;5030644;28;21492;-66
2022/05/24 02:11:04;;;;;;;3.43;3.10;;;18.60;99.90;;;19.13;71.27;99441.78;5025226;28;20679;-66
2022/05/24 02:13:37;;;;;;;3.47;2.63;;;18.50;99.90;;;19.07;71.72;99442.56;5020973;28;20651;-67
2022/05/24 02:16:10;;;;;;;6.67;2.47;;;18.40;99.90;;;19.06;72.02;99425.09;5014924;28;20626;-67
2022/05/24 02:18:39;;;;;;;2.33;2.23;;;18.40;99.90;;;18.97;72.55;99420.97;5029920;28;20693;-66
2022/05/24 02:21:06;;;;;;;2.60;2.40;;;18.40;99.90;;;18.92;72.69;99408.31;5030393;28;21043;-66
2022/05/24 02:23:48;;;;;;;2.73;2.50;;;18.30;99.90;;;18.86;73.29;99409.09;5039396;28;20700;-67
2022/05/24 02:26:21;;;;;;;5.40;2.40;;;18.20;99.90;;;18.75;73.61;99408.78;5038096;28;21196;-67
2022/05/24 02:28:54;;;;;;;2.60;2.40;;;18.10;99.90;;;18.73;74.18;99409.00;5019848;28;21511;-66
2022/05/24 02:31:23;;;;;;;3.93;2.87;;;18.10;99.90;;;18.71;74.32;99405.72;5018387;28;20674;-67
2022/05/24 02:33:50;;;;;;;3.00;2.70;;;18.10;99.90;;;18.61;75.09;99399.16;5036508;28;20680;-66
2022/05/24 02:36:18;;;;;;;3.47;3.17;;;18.00;99.90;;;18.55;75.82;99398.06;5051315;28;20790;-66
2022/05/24 02:38:46;;;;;;;2.67;2.47;;;18.00;99.90;;;18.52;76.10;99396.66;5050110;28;20632;-66
2022/05/24 02:41:29;;;;;;;3.60;3.30;;;17.90;99.90;;;18.37;77.28;99393.22;5031661;28;21181;-66
2022/05/24 02:44:09;;;;;;;3.30;3.00;;;17.90;99.90;;;18.47;76.83;99399.03;5038676;28;20683;-66
2022/05/24 02:46:40;;;;;;;3.20;3.00;;;17.90;99.90;;;18.62;76.29;99395.47;5043425;28;20643;-66
2022/05/24 02:49:10;;;;;;;3.40;3.00;;;18.00;99.90;;;18.70;75.75;99390.06;5031552;28;21342;-66
2022/05/24 02:51:39;;;;;;;3.20;3.00;;;18.10;99.90;;;18.81;75.45;99389.53;5050544;28;21227;-66
2022/05/24 02:54:08;;;;;;;4.87;2.80;;;18.20;99.90;;;18.78;75.63;99395.22;5039876;28;20742;-66
2022/05/24 02:56:35;;;;;;;3.50;3.20;;;18.20;99.90;;;18.80;75.42;99385.25;5030921;28;20644;-66
2022/05/24 02:59:04;;;;;;;3.37;3.07;;;18.20;99.90;;;18.69;75.98;99396.34;5043399;28;20948;-66
2022/05/24 03:01:31;;;;;;;5.57;3.03;;;18.10;99.90;;;18.67;76.22;99401.00;5029851;28;20628;-66
2022/05/24 03:03:58;;;;;;;4.23;3.30;;;18.10;99.90;;;18.46;77.58;99404.50;5040298;28;20667;-66
2022/05/24 03:06:25;;;;;;;3.70;2.87;;;17.90;99.90;;;18.44;77.63;99404.69;5031004;28;20727;-67
2022/05/24 03:14:24;;;;;;;5.30;3.13;;;17.80;99.90;;;18.31;79.53;99395.81;5040714;28;20758;-67
2022/05/24 03:16:53;;;;;;;2.97;2.77;;;17.70;99.90;;;18.31;79.78;99391.34;5042792;28;21255;-64
2022/05/24 03:19:21;;;;;;;3.83;3.53;;;17.70;99.90;;;18.23;80.98;99391.47;5039720;28;20615;-67
2022/05/24 03:21:50;;;;;;;4.10;3.80;;;17.60;99.90;;;18.20;81.54;99397.13;5045715;28;20637;-67
2022/05/24 03:24:17;;;;;;;7.40;3.23;;;17.60;99.90;;;18.31;81.19;99409.84;5029382;28;20735;-67
2022/05/24 03:26:44;;;;;;;4.67;3.33;;;17.80;99.90;;;18.43;80.77;99416.22;5029669;28;20731;-65
2022/05/24 03:29:11;;;;;;;3.80;3.50;;;17.90;99.90;;;18.37;81.05;99411.72;5028071;28;20632;-67
2022/05/24 03:31:38;;;;;;;3.00;2.80;;;17.80;99.90;;;18.22;82.28;99408.31;5008930;28;20781;-66
2022/05/24 03:34:05;;;;;;;2.43;2.23;;;17.70;99.90;;;18.25;82.17;99404.50;5018236;28;20651;-67
2022/05/24 03:36:32;;;;;;;3.23;2.93;;;17.70;99.90;;;18.10;83.05;99403.72;5030098;28;20701;-66
2022/05/24 03:38:59;;;;;;;5.50;3.60;;;17.60;99.90;;;18.13;83.17;99398.88;5042856;28;21255;-66
2022/05/24 03:41:26;;;;;;;3.23;2.93;;;17.50;99.90;;;18.10;82.80;99398.44;5043607;28;20638;-67
2022/05/24 03:43:53;;;;;;;3.53;3.23;;;17.60;99.90;;;18.00;83.91;99398.75;5021658;28;21273;-66
2022/05/24 03:46:20;;;;;;;3.83;3.10;;;17.40;99.90;;;18.11;83.54;99390.34;5048824;28;20639;-66
2022/05/24 03:48:47;;;;;;;5.40;3.23;;;17.50;99.90;;;18.03;83.53;99392.28;5030173;28;20668;-66
2022/05/24 03:51:14;;;;;;;4.10;3.50;;;17.50;99.90;;;18.12;82.65;99399.06;5029692;28;20668;-67
2022/05/24 03:53:41;;;;;;;3.87;3.40;;;17.50;99.90;;;18.01;83.33;99402.19;5019153;28;21147;-66
2022/05/24 03:56:08;;;;;;;3.47;3.10;;;17.40;99.90;;;17.76;84.11;99397.25;5009731;28;20628;-66
2022/05/24 03:58:36;;;;;;;3.00;2.77;;;17.30;99.90;;;17.77;84.03;99392.81;5019579;28;20635;-66
2022/05/24 04:01:03;;;;;;;3.03;2.83;;;17.20;99.90;;;17.75;84.42;99394.81;5031080;28;20612;-66
2022/05/24 04:05:58;;;;;;;2.57;2.37;;;17.30;99.90;;;17.98;82.63;99405.19;4910600;29;20784;-66
2022/05/24 04:08:26;;;;;;;3.57;2.80;;;17.50;99.90;;;17.91;82.24;99396.41;4919950;29;20660;-65
2022/05/24 04:11:06;;;;;;;2.50;2.40;;;17.50;99.90;;;18.00;81.84;99396.09;4934895;29;20676;-65
2022/05/24 04:13:34;;;;;;;3.93;2.90;;;17.50;99.90;;;17.90;82.09;99389.50;4932907;29;21169;-65
2022/05/24 04:16:01;;;;;;;2.10;2.00;;;17.40;99.90;;;17.89;81.56;99380.75;4941690;29;21249;-65
2022/05/24 04:18:29;;;;;;;2.67;2.33;;;17.40;99.90;;;17.77;81.50;99392.81;4932739;29;20684;-62
2022/05/24 04:20:56;;;;;;;3.20;3.00;;;17.30;99.90;;;17.80;81.18;99400.38;4947792;29;20740;-64
2022/05/24 04:23:25;;;;;;;3.33;2.50;;;17.30;99.90;;;17.92;80.68;99433.16;4941039;29;20639;-65
2022/05/24 04:25:54;;;;;;;3.57;3.27;;;17.40;99.90;;;18.09;79.63;99445.13;4946982;28;20644;-65
2022/05/24 04:28:22;;;;;;;2.63;2.43;;;17.60;99.90;;;18.15;78.96;99444.38;4936469;29;20737;-63
2022/05/24 04:30:51;;;;;;;1.93;1.87;;;17.70;99.90;;;18.24;78.11;99423.97;4915030;29;20646;-65
2022/05/24 04:33:18;;;;;;;3.23;2.87;;;17.80;99.90;;;18.24;77.90;99429.25;4932706;29;20620;-66
2022/05/24 04:35:46;;;;;;;2.20;2.10;;;17.70;99.90;;;18.31;76.94;99440.69;4931236;29;20667;-63
2022/05/24 04:38:13;;;;;;;2.33;2.23;;;17.80;99.90;;;18.32;76.91;99447.59;4934710;29;20613;-65
2022/05/24 04:43:26;;;;;;;3.03;2.33;;;17.80;99.90;;;18.36;76.33;99440.94;4944761;29;20609;-65
2022/05/24 04:45:53;;;;;;;1.87;1.77;;;17.90;99.90;;;18.29;76.70;99440.06;4946455;29;21242;-66
2022/05/24 04:48:21;;;;;;;1.70;1.60;;;17.80;99.90;;;18.36;76.04;99441.75;4932059;29;20613;-63
2022/05/24 04:50:54;;;;;;;2.40;2.07;;;17.90;99.90;;;18.32;76.42;99444.94;4949482;29;20674;-65
2022/05/24 04:53:22;;;;;;;2.20;2.10;;;17.80;99.90;;;18.36;76.08;99452.31;4951117;28;20644;-66
2022/05/24 04:55:49;;;;;;;1.80;1.70;;;17.80;99.90;;;18.56;74.95;99452.53;4951306;28;21255;-68
2022/05/24 04:58:20;;;;;;;2.47;2.37;;;18.00;99.90;;;18.57;74.46;99454.97;4953496;29;20638;-65
2022/05/24 05:00:49;;;;;;;2.17;2.07;;;18.10;99.90;;;18.46;74.94;99447.56;4948413;29;20633;-65
2022/05/24 05:03:18;;;;;;;1.50;1.40;;;18.00;99.90;;;18.58;74.48;99448.72;4934890;29;20633;-65
2022/05/24 05:05:48;;;;;;;1.57;1.50;;;18.10;99.90;;;18.65;73.62;99458.50;4933882;29;20684;-67
2022/05/24 05:08:15;;;;;;;1.17;1.07;;;18.20;99.90;;;18.53;74.40;99458.19;4935119;29;20633;-67
2022/05/24 05:10:42;;;;;;;1.10;1.10;;;18.00;99.90;;;18.50;73.90;99448.03;4936570;29;20708;-67
2022/05/24 05:13:09;;;;;;;2.80;1.80;;;18.10;99.90;;;18.64;73.98;99454.22;4934998;29;20629;-67
2022/05/24 05:15:37;;;;;;;1.50;1.50;;;18.10;99.90;;;19.00;71.95;99452.28;4935112;29;20656;-67
2022/05/24 05:18:08;;;;;;;1.50;1.40;;;18.50;99.90;;;19.08;71.54;99452.16;4937452;29;20629;-67
2022/05/24 05:20:39;;;;;;;1.20;1.20;;;18.60;99.90;;;18.94;71.79;99471.56;4935309;29;20736;-66
2022/05/24 05:23:09;;;;;;;1.80;1.70;;;18.50;99.90;;;18.95;71.52;99478.50;4939393;29;20663;-67
2022/05/24 05:25:37;;;;;;;1.70;1.60;;;18.60;99.90;;;18.95;71.53;99481.13;4934522;29;20672;-67
2022/05/24 05:28:04;;;;;;;1.50;1.40;;;18.50;99.90;;;19.06;70.82;99485.91;4932834;29;20890;-66
2022/05/24 05:33:17;;;;;;;2.20;1.70;;;18.50;99.90;;;19.05;70.79;99500.13;4926907;29;20727;-67
2022/05/24 05:35:46;;;;;;;2.13;1.57;;;18.60;99.90;;;19.16;70.61;99496.94;4952213;29;20754;-67
2022/05/24 05:38:14;;;;;;;1.60;1.60;;;18.70;99.90;;;19.16;70.35;99505.72;4953439;28;20719;-66
2022/05/24 05:40:41;;;;;;;1.40;1.40;;;18.70;99.90;;;19.16;70.32;99521.56;4947574;29;20648;-68
2022/05/24 05:43:09;;;;;;;2.97;1.23;;;18.70;99.90;;;19.18;70.52;99513.44;4936387;29;21513;-67
2022/05/24 05:45:37;;;;;;;1.40;1.40;;;18.70;99.90;;;19.17;70.75;99517.91;4946599;28;20676;-69
2022/05/24 05:48:05;;;;;;;1.33;1.33;;;18.70;99.90;;;19.22;70.30;99519.97;4932200;29;20696;-67
2022/05/24 05:50:31;;;;;;;1.30;1.30;;;18.70;99.90;;;19.22;70.08;99519.97;4932065;29;20654;-64
2022/05/24 05:53:01;;;;;;;2.20;1.50;;;18.70;99.90;;;19.24;69.58;99525.88;4931846;29;20672;-68
2022/05/24 05:55:29;;;;;;;1.33;1.27;;;18.70;99.90;;;19.35;69.14;99533.31;4935825;29;20641;-69
2022/05/24 05:57:55;;;;;;;1.07;1.07;;;18.80;99.90;;;19.46;68.29;99539.91;4941658;29;21012;-66
2022/05/24 06:00:22;;;;;;;0.90;0.90;;;18.90;99.90;;;19.58;66.96;99544.47;4952976;29;20626;-68
2022/05/24 06:02:49;;;;;;;1.30;1.20;;;19.10;99.90;;;19.65;65.19;99542.69;4946211;29;20651;-67
2022/05/24 06:05:16;;;;;;;0.83;0.73;;;19.10;99.90;;;19.81;62.63;99550.31;4933866;29;20747;-69
2022/05/24 06:07:43;;;;;;;12.60;1.13;;;19.30;99.90;;;19.94;60.91;99558.31;4937831;29;21292;-67
2022/05/24 06:10:12;;;;;;;0.80;0.80;;;19.50;99.90;;;19.96;61.10;99566.06;4933544;29;20640;-67
2022/05/24 06:12:39;;;;;;;1.47;0.77;;;19.50;99.90;;;19.91;60.53;99574.59;4938818;28;20669;-66
2022/05/24 06:15:06;;;;;;;2.63;0.60;;;19.40;99.90;;;19.91;60.01;99581.72;4933274;29;20641;-67
2022/05/24 06:17:50;;;;;;;0.70;0.70;;;19.30;99.90;;;19.78;60.57;99592.22;4934325;29;20653;-66
2022/05/24 06:20:24;;;;;;;0.60;0.60;;;19.20;99.90;;;19.66;60.11;99593.75;4946206;29;20775;-67
2022/05/24 06:22:52;;;;;;;0.50;0.50;;;19.10;99.90;;;19.34;61.17;99606.56;4934121;29;20620;-68
2022/05/24 06:25:25;;;;;;;0.50;0.50;;;18.90;99.90;;;19.36;60.74;99600.28;4946716;28;20671;-67
2022/05/24 06:27:53;;;;;;;0.57;0.57;;;18.90;99.90;;;19.35;60.52;99612.69;4934214;29;20631;-67
2022/05/24 06:30:23;;;;;;;2.20;0.70;;;18.90;99.90;;;19.33;61.18;99625.25;4933165;29;20651;-66
2022/05/24 06:32:51;;;;;;;1.17;0.50;;;18.80;99.90;;;19.05;62.29;99633.13;4932918;29;20680;-66
2022/05/24 06:35:20;;;;;;;0.80;0.80;;;18.60;99.90;;;19.03;61.90;99634.31;4934851;29;21044;-66
2022/05/24 06:37:48;;;;;;;0.50;0.50;;;18.60;99.90;;;19.10;62.25;99633.34;4946792;28;21440;-66
2022/05/24 06:40:18;;;;;;;0.53;0.53;;;18.50;99.90;;;19.12;61.91;99643.75;4932743;29;20970;-68
2022/05/24 06:42:45;;;;;;;0.70;0.70;;;18.60;99.90;;;19.22;60.93;99634.50;4936735;29;20654;-67
2022/05/24 06:45:13;;;;;;;1.00;0.70;;;18.70;99.90;;;19.19;60.60;99644.63;4938454;29;20657;-65
2022/05/24 06:47:40;;;;;;;0.70;0.70;;;18.70;99.90;;;19.26;60.78;99643.69;4932953;29;20745;-67
2022/05/24 06:50:10;;;;;;;0.70;0.70;;;18.80;99.90;;;19.49;59.88;99645.31;4925352;29;20696;-68
2022/05/24 06:52:37;;;;;;;0.50;0.50;;;19.00;99.90;;;19.72;58.54;99651.25;4923720;29;20684;-67
2022/05/24 06:55:07;;;;;;;0.70;0.70;;;19.20;99.90;;;19.82;57.69;99649.88;4934477;29;20668;-67
2022/05/24 06:57:34;;;;;;;1.43;0.50;;;19.30;99.90;;;19.68;57.72;99660.53;4935192;29;20679;-67
2022/05/24 07:03:17;;;;;;;0.80;0.80;;;19.10;99.90;;;19.62;59.03;99672.72;4943144;29;20670;-67
2022/05/24 07:05:45;;;;;;;0.70;0.70;;;19.10;99.90;;;19.59;60.23;99673.09;4945885;29;20680;-68
2022/05/24 07:08:12;;;;;;;0.83;0.70;;;19.00;99.90;;;19.55;61.64;99665.75;4934167;29;21087;-66
2022/05/24 07:10:40;;;;;;;1.57;0.80;;;19.00;99.90;;;19.51;62.23;99665.28;4953094;29;20977;-67
2022/05/24 07:13:16;;;;;;;0.70;0.70;;;18.90;99.90;;;19.46;63.58;99677.47;4932579;28;20668;-67
2022/05/24 07:15:43;;;;;;;0.83;0.83;;;18.90;99.90;;;19.49;63.90;99693.78;4926584;29;21236;-66
2022/05/24 07:18:10;;;;;;;8.30;6.23;;;18.90;99.90;;;19.64;63.87;99693.69;4933167;29;20629;-66
2022/05/24 07:20:37;;;;;;;2.10;0.90;;;19.20;99.90;;;19.83;63.42;99712.38;4930797;29;20669;-66
2022/05/24 07:23:20;;;;;;;1.00;0.60;;;19.30;99.90;;;20.51;60.23;99716.13;4932295;29;20645;-66
2022/05/24 07:25:48;;;;;;;0.60;0.60;;;20.00;99.90;;;20.85;60.11;99724.03;4930737;29;20668;-70
2022/05/24 07:28:22;;;;;;;2.20;0.80;;;20.40;99.90;;;21.00;58.62;99722.06;4931604;29;20641;-66
2022/05/24 07:30:50;;;;;;;0.50;0.50;;;20.60;99.90;;;20.93;57.95;99726.53;4932787;29;20628;-66
2022/05/24 07:33:17;;;;;;;0.53;0.53;;;20.50;99.90;;;20.81;58.07;99715.66;4944437;29;20764;-67
2022/05/24 07:35:44;;;;;;;0.60;0.60;;;20.30;99.90;;;20.72;57.96;99732.75;4932900;29;20740;-66
2022/05/24 07:38:12;;;;;;;1.17;0.80;;;20.30;99.90;;;20.81;57.44;99741.34;4934661;29;20636;-66
2022/05/24 07:46:14;;;;;;;0.70;0.60;;;21.40;98.70;;;22.46;52.92;99746.72;4930629;29;20679;-66
2022/05/24 07:48:42;;;;;;;0.70;0.70;;;22.00;97.30;;;23.23;49.79;99746.69;4930445;29;20643;-65
2022/05/24 07:51:10;;;;;;;0.70;0.70;;;22.90;95.70;;;24.28;47.43;99748.59;4948330;29;20644;-67
2022/05/24 07:53:37;;;;;;;0.80;0.80;;;23.90;93.90;;;25.27;44.60;99767.81;4946713;29;20763;-66
2022/05/24 07:56:05;;;;;;;0.97;0.87;;;25.00;91.50;;;25.46;43.77;99774.78;4929788;29;20650;-68
2022/05/24 07:58:32;;;;;;;0.70;0.70;;;25.20;90.00;;;25.69;43.44;99774.00;4932876;29;20651;-70
2022/05/24 08:01:00;;;;;;;1.73;0.67;;;25.40;88.30;;;26.10;42.83;99772.16;4932440;29;20744;-66
2022/05/24 08:03:27;;;;;;;0.80;0.80;;;25.80;86.80;;;26.17;41.23;99770.16;4933213;29;20629;-66
2022/05/24 08:05:54;;;;;;;0.70;0.70;;;26.00;82.70;;;26.20;40.03;99779.59;4933038;29;20651;-66
2022/05/24 08:08:22;;;;;;;0.73;0.73;;;25.80;80.10;;;26.28;40.45;99778.44;4937634;29;20639;-67
2022/05/24 08:10:49;;;;;;;0.60;0.60;;;25.90;80.30;;;26.76;38.64;99776.34;4932259;29;21317;-66
2022/05/24 08:13:19;;;;;;;1.07;0.90;;;26.30;77.40;;;27.94;36.86;99779.16;4932111;29;20673;-66
2022/05/24 08:15:50;;;;;;;1.70;0.70;;;27.70;73.10;;;27.85;36.15;99770.69;4940667;29;20683;-68
2022/05/24 08:18:18;;;;;;;0.60;0.60;;;27.60;70.90;;;27.58;36.80;99785.75;4939633;28;20637;-66
2022/05/24 08:20:44;;;;;;;0.70;0.70;;;27.10;71.10;;;28.01;36.24;99786.00;4939793;29;21224;-68
2022/05/24 08:23:12;;;;;;;0.80;0.80;;;27.70;70.20;;;27.89;36.00;99782.56;4943903;28;20683;-69
2022/05/24 08:25:39;;;;;;;0.77;0.77;;;27.50;68.60;;;28.29;35.66;99777.88;4932847;29;20743;-66
2022/05/24 08:28:07;;;;;;;0.70;0.70;;;27.90;68.40;;;28.92;33.85;99788.16;4935293;29;20742;-66
2022/05/24 08:30:37;;;;;;;1.50;0.90;;;28.80;65.30;;;27.97;34.86;99786.72;4919718;29;20640;-66
2022/05/24 08:33:06;;;;;;;1.00;0.87;;;27.80;65.20;;;29.08;34.55;99791.84;4954293;29;20699;-66
2022/05/24 08:35:35;;;;;;;0.80;0.80;;;28.60;66.00;;;29.48;33.44;99778.88;4942616;28;20998;-67
2022/05/24 08:38:04;;;;;;;1.03;0.53;;;29.20;63.20;;;28.92;33.96;99788.16;4937390;29;20720;-65
2022/05/24 08:40:34;;;;;;;0.60;0.60;;;28.60;63.00;;;30.83;30.91;99788.28;4936356;29;20762;-66
2022/05/24 08:43:30;;;;;;;1.00;0.90;;;30.50;60.30;;;33.29;27.58;99795.63;4952024;29;21163;-67
2022/05/24 08:48:57;;;;;;;1.87;0.80;;;33.60;52.80;;;30.89;29.67;99800.72;4932124;29;20739;-66
2022/05/24 08:51:55;;;;;;;0.67;0.60;;;30.90;54.20;;;27.70;34.67;99815.19;4944155;29;21220;-69
2022/05/24 08:54:43;;;;;;;1.10;0.60;;;27.80;58.50;;;25.59;37.46;99829.84;4929971;29;20679;-66
2022/05/24 08:57:33;;;;;;;0.90;0.90;;;25.30;61.40;;;23.92;39.66;99814.06;4917361;29;20629;-69
2022/05/24 09:00:13;;;;;;;0.40;0.40;;;23.50;65.10;;;23.20;41.24;99807.47;4950640;29;20720;-69
2022/05/24 09:02:47;;;;;;;1.20;0.67;;;22.70;66.90;;;22.83;41.78;99811.72;4941722;29;20652;-66
2022/05/24 09:05:23;;;;;;;1.53;0.50;;;22.20;68.00;;;22.33;44.46;99827.31;4919750;29;20657;-66
2022/05/24 09:08:05;;;;;;;0.60;0.60;;;21.80;71.00;;;22.17;45.83;99834.84;4916285;29;21233;-66
2022/05/24 09:11:19;;;;;;;1.80;0.70;;;21.60;73.30;;;21.76;47.69;99842.97;4930073;29;20651;-65
2022/05/24 09:14:12;;;;;;;0.77;0.67;;;21.20;75.40;;;22.07;48.91;99856.50;4925154;29;20688;-65
2022/05/24 09:17:00;;;;;;;1.03;0.60;;;21.40;78.00;;;23.37;47.54;99836.09;4929297;29;20648;-66
2022/05/24 09:19:34;;;;;;;0.70;0.57;;;22.70;78.00;;;25.69;42.89;99844.31;4918610;29;20658;-66
2022/05/24 09:22:03;;;;;;;0.60;0.60;;;25.30;74.00;;;29.00;37.05;99849.50;4934072;29;20736;-66
2022/05/24 09:24:49;;;;;;;0.60;0.50;;;28.80;67.30;;;31.86;30.64;99850.09;4935074;29;20670;-68
2022/05/24 09:27:22;;;;;;;0.60;0.60;;;32.00;59.00;;;33.00;29.24;99852.25;4933116;29;20671;-67
2022/05/24 09:30:37;;;;;;;0.90;0.67;;;33.00;56.50;;;32.46;29.46;99853.91;4935277;29;21252;-69
2022/05/24 09:33:25;;;;;;;0.60;0.60;;;32.70;55.50;;;33.51;28.44;99850.97;4912470;29;20752;-67
2022/05/24 09:35:59;;;;;;;0.83;0.70;;;33.50;54.60;;;35.45;26.01;99858.69;4932905;29;20626;-67
2022/05/24 09:38:36;;;;;;;0.70;0.60;;;35.60;51.90;;;36.24;23.85;99852.38;4934258;29;24495;-64
2022/05/24 09:41:22;;;;;;;0.67;0.67;;;36.90;48.10;;;37.20;22.89;99854.16;4939835;28;20212;-68
2022/05/24 09:44:05;;;;;;;0.57;0.57;;;37.60;46.70;;;38.46;21.16;99869.53;4933746;29;21073;-67
2022/05/24 09:46:36;;;;;;;0.70;0.70;;;38.50;45.00;;;39.41;19.57;99847.75;4933661;29;21185;-66
2022/05/24 09:49:27;;;;;;;0.90;0.90;;;39.60;42.70;;;40.21;18.71;99854.53;4933823;29;20710;-66
2022/05/24 09:51:56;;;;;;;2.30;0.80;;;40.70;40.80;;;40.98;17.81;99857.84;4936474;29;20617;-67
2022/05/24 09:54:28;;;;;;;1.10;1.10;;;41.20;40.20;;;42.26;17.54;99853.38;4933526;29;20930;-66
2022/05/24 09:57:11;;;;;;;2.10;0.80;;;42.30;39.50;;;41.78;16.99;99852.38;4925671;29;20640;-67
2022/05/24 09:59:41;;;;;;;1.77;1.00;;;42.30;38.40;;;;;;4931323;29;20648;-67
2022/05/24 10:02:28;;;;;;;0.87;0.87;;;42.30;38.40;;;;;;4935581;29;20999;-67
2022/05/24 10:04:55;;;;;;;0.80;0.77;;;41.20;38.00;;;;;;4966423;23;20694;-66
2022/05/24 10:07:32;;;;;;;0.83;0.83;;;40.60;38.20;;;;;;4988378;28;21261;-66
2022/05/24 10:10:08;;;;;;;0.83;0.83;;;39.80;38.90;;;;;;4990920;28;20634;-65
2022/05/24 10:13:00;;;;;;;1.50;0.93;;;38.50;39.80;;;;;;4979987;28;21325;-66
2022/05/24 10:15:37;;;;;;;0.80;0.80;;;35.90;41.70;;;;;;4991662;28;20656;-66
2022/05/24 10:18:22;;;;;;;2.63;1.00;;;34.80;42.30;;;;;;4982442;28;20661;-64
2022/05/24 10:21:21;;;;;;;1.73;0.83;;;33.80;42.80;;;;;;4973942;28;20615;-65
2022/05/24 10:24:16;;;;;;;1.87;0.80;;;31.50;45.00;;;;;;4984811;28;20645;-68
2022/05/24 10:26:58;;;;;;;0.70;0.70;;;29.70;47.00;;;;;;4993436;28;20664;-66
2022/05/24 10:29:37;;;;;;;0.83;0.83;;;27.80;49.10;;;;;;4990398;28;20648;-66
2022/05/24 10:38:17;;;;;;;0.67;0.67;;;26.60;50.10;;;;;;4991955;28;20618;-66
2022/05/24 10:38:18;;;;;;;0.70;0.70;;;25.40;52.70;;;;;;4986452;28;20641;-67
2022/05/24 10:41:04;;;;;;;0.80;0.80;;;25.10;53.20;;;;;;4992113;28;20640;-68
2022/05/24 10:43:53;;;;;;;0.50;0.50;;;24.50;53.80;;;;;;4977904;28;20741;-66
2022/05/24 10:46:29;;;;;;;0.90;0.90;;;24.40;53.90;;;;;;4991199;28;20643;-66
2022/05/24 10:49:01;;;;;;;2.77;0.63;;;24.10;54.80;;;;;;4990153;28;20716;-65
2022/05/24 10:51:52;;;;;;;1.03;0.77;;;23.90;55.20;;;;;;4991939;28;20733;-66
2022/05/24 10:54:21;;;;;;;2.27;0.80;;;23.70;55.40;;;;;;4980233;28;21017;-65
2022/05/24 10:56:54;;;;;;;0.63;0.63;;;23.60;55.90;;;;;;4972689;28;20649;-65
2022/05/24 10:59:40;;;;;;;1.13;0.80;;;23.60;56.20;;;;;;4982411;28;21047;-66
2022/05/24 11:02:26;;;;;;;0.70;0.70;;;23.50;56.80;;;;;;4986328;28;20645;-68
2022/05/24 11:05:05;;;;;;;0.70;0.67;;;23.30;57.40;;;;;;4972939;28;20709;-67
2022/05/24 11:07:35;;;;;;;2.00;1.00;;;23.20;57.70;;;;;;4990521;28;20733;-65
2022/05/24 11:10:07;;;;;;;0.70;0.70;;;23.10;58.30;;;;;;4992276;28;20706;-66
2022/05/24 11:12:48;;;;;;;0.97;0.70;;;23.00;57.10;;;;;;4973328;28;20761;-65
2022/05/24 11:15:20;;;;;;;0.80;0.80;;;22.90;58.70;;;;;;4971537;28;20659;-66
2022/05/24 11:17:47;;;;;;;0.80;0.80;;;22.90;57.70;;;;;;4971269;28;20661;-66
2022/05/24 11:20:20;;;;;;;0.57;0.57;;;22.70;58.40;;;;;;4978371;28;20639;-66
2022/05/24 11:23:15;;;;;;;0.83;0.83;;;22.50;59.60;;;;;;4973737;28;20641;-66
2022/05/24 11:25:49;;;;;;;1.47;0.77;;;22.60;60.00;;;;;;4972478;28;21262;-66
2022/05/24 11:28:33;;;;;;;0.40;0.40;;;22.70;59.90;;;;;;4972807;28;20630;-66
2022/05/24 11:31:20;;;;;;;0.60;0.50;;;22.90;59.30;;;;;;4990517;28;20968;-67
2022/05/24 11:33:48;;;;;;;0.73;0.73;;;22.80;58.20;;;;;;4985338;28;21283;-66